• Join FlightAware (Why Join?)
  • Login
  • US Flag 
03:40AM EDT


 

Airport Tracker/Info


-or-


 

Live Flight TrackerFlight Track Log ✈ CES2231 ✈ 30-Jul-2013 ✈ ZLXY / XIY - ZUJZ / JZH

Flight Track Log - Related Links

Times and Time Zones

All times are in EDT time to prevent confusion due to time zone crossing. See the CES2231 flight status page for this flight to view local times or setup timezone preferences in your user account.

Time Position Orientation Groundspeed Altitude Reporting Facility
EDT Latitude Longitude Course Direction KTS MPH feet Rate Location/Type
07:04AM 33.9399 107.0403 251° West  Level Estimated
07:05AM 33.9139 106.9553 250° West  Level Estimated
07:06AM 33.8879 106.8703 250° West  Level Estimated
07:07AM 33.8618 106.7854 250° West  Level Estimated
07:08AM 33.8356 106.7005 250° West  Level Estimated
07:09AM 33.8094 106.6157 250° West  Level Estimated
07:10AM 33.7831 106.5309 250° West  Level Estimated
07:11AM 33.7568 106.4462 250° West  Level Estimated
07:12AM 33.7304 106.3616 249° West  Level Estimated
07:13AM 33.7040 106.2769 249° West  Level Estimated
07:14AM 33.6775 106.1924 249° West  Level Estimated
07:15AM 33.6509 106.1079 249° West  Level Estimated
07:16AM 33.6243 106.0235 249° West  Level Estimated
07:17AM 33.5976 105.9390 249° West  Level Estimated
07:18AM 33.5709 105.8547 249° West  Level Estimated
07:19AM 33.5441 105.7704 249° West  Level Estimated
07:20AM 33.5172 105.6862 249° West  Level Estimated
07:21AM 33.4903 105.6020 249° West  Level Estimated
07:22AM 33.4634 105.5178 249° West  Level Estimated
07:23AM 33.4364 105.4338 249° West  Level Estimated
07:24AM 33.4093 105.3497 249° West  Level Estimated
07:25AM 33.3821 105.2657 249° West  Level Estimated
07:26AM 33.3550 105.1818 249° West  Level Estimated
07:27AM 33.3277 105.0980 249° West  Level Estimated
07:28AM 33.3004 105.0141 249° West  Level Estimated
07:29AM 33.2731 104.9304 249° West  Level Estimated
07:30AM 33.2457 104.8466 249° West  Level Estimated
07:31AM 33.2182 104.7630 249° West  Level Estimated
07:32AM 33.1907 104.6794 249° West  Level Estimated
07:33AM 33.1631 104.5958 249° West  Level Estimated
07:34AM 33.1354 104.5123 248° West  Level Estimated
07:35AM 33.1077 104.4288 248° West  Level Estimated
07:35AM 32.4080 104.5080 248° West 377 434 23,600  Level FlightAware
07:36AM 33.0800 104.3455 248° West  Level Estimated
07:36AM 32.4090 104.4350 271° West 375 432 23,600  Level FlightAware
07:37AM 32.4100 104.3590 271° West 372 428 23,600 -300 Level FlightAware
07:37AM 32.4120 104.2900 272° West 348 400 23,300 -1,260 Descending FlightAware
07:38AM 32.4240 104.2310 284° West 344 396 22,200 -2,040 Descending FlightAware
07:38AM 32.4440 104.1810 295° West 339 390 21,200 -1,020 Descending FlightAware
07:39AM 32.4780 104.1160 302° West 338 389 20,900 -240 Descending FlightAware
07:40AM 32.5040 104.0680 303° West 338 389 20,900  Level FlightAware
07:40AM 32.5420 103.9940 301° West 338 389 20,900  Level FlightAware
07:41AM 32.5660 103.9490 302° West 338 389 20,900  Level FlightAware
07:42AM 32.6130 103.8610 302° West 338 389 20,900  Level FlightAware
07:45AM 32.7721 103.7450 329° Northwest  Level Estimated
07:46AM 32.8384 103.6966 328° Northwest  Level Estimated
07:47AM 32.8570 103.6830 328° Northwest  Level Estimated
07:48AM 32.8570 103.6830 North  Level Estimated
07:49AM 32.8570 103.6830 North  Level Estimated
07:50AM 32.8570 103.6830 North  Level Estimated
07:51AM 32.8570 103.6830 North  Level Estimated
07:52AM 32.8570 103.6830 North  Level Estimated
07:53AM 32.8570 103.6830 North  Level Estimated
07:54AM 32.8570 103.6830 North  Level Estimated
07:55AM 32.8570 103.6830 North  Level Estimated
07:56AM 32.8570 103.6830 North  Level Estimated
07:57AM 32.8570 103.6830 North  Level Estimated
07:58AM 32.8570 103.6830 North  Level Estimated